Lordsburg, NM

8:04 PM MDT on May 22, 2017 (GMT -0600)
Saint Johns Industrial | | Change Station
Active Advisory: Fire Weather Watch

Elev 5735 ft 34.52 °N, 109.38 °W | Updated 10 minutes ago

Clear
Clear
73 °F
Feels Like 73 °F
N
14
Wind Variable Wind from NW

Today
High -- | Low -- °F
--% Chance of Precip.
Yesterday
High -- | Low -- °F
Precip. -- in
Pressure 29.89 in
Visibility 10.0 miles
Clouds Clear
Dew Point 13 °F
Humidity 10%
Rainfall 0.00 in
Snow Depth Not available.
6:07 AM 8:15 PM
Waning Crescent, 11% visible
METAR KSJN 230154Z AUTO 32012KT 10SM CLR 23/M11 A3011 RMK AO2 SLP120 T02281106 TSNO
Pressure 29.89 in
Visibility 10.0 miles
Clouds Clear
Dew Point 13 °F
Humidity 10%
Rainfall 0.00 in
Snow Depth Not available.
6:07 AM 8:15 PM
Waning Crescent, 11% visible
METAR KSJN 230154Z AUTO 32012KT 10SM CLR 23/M11 A3011 RMK AO2 SLP120 T02281106 TSNO

Get Your Daily Forecast Email!

Thanks for signing up!

Be on the lookout for a verification email in your inbox.

You'll start receiving severe weather alerts in your inbox..

×

10-Day Weather Forecast

Almanac

Astronomy

May. 22, 2017 Rise Set
Actual Time
Civil Twilight
Nautical Twilight
Astronomical Twilight
Moon
Length of Visible Light
Length of Day
Tomorrow will be .
, % of the Moon is Illuminated

Today's Extremes

State Highs State Lows

Community

WunderPhotos

Category 6

Welcome to Category 6. This is the collective home for Weather Underground's featured writeups by Dr. Jeff Masters (right), Bob Henson (left), Chris Burt, and other regular contributors.

Nearby

Air Quality

  Air Quality AQ Index Pollutant
Not available.

Snow Depth

Station Depth Elevation

Earthquake Activity

City Distance Mag. Time & Date
Minimum magnitude displayed is 2.5.

Coastal Water Temperatures

Place Temperature

Stations

Nearby Weather Stations

Station Location Temp. Windchill Dew Point Humidity Wind Precip. Elev Updated Type
                   

Watches & Warnings

Fire Weather Watch
Issued: 2:42 PM MDT May. 22, 2017 – National Weather Service

... Fire Weather Watch in effect from Thursday afternoon through
Thursday evening...

The National Weather Service in Albuquerque has issued a Fire
Weather Watch... which is in effect from Thursday afternoon
through Thursday evening.

* Area and timing... west-Central Highlands to Sandia/manzanos and
south to include the lower Rio Grande Valley.

* 20 foot winds... west to SW 20-25 mph with gusts up to 35-40 mph.

* Relative humidity... 5-10 percent.

* Impacts... any fires that develop will likely spread rapidly.
Outdoor burning is not recommended.

Precautionary/preparedness actions...

Please advise the appropriate officials or fire crews in the
field of this Fire Weather Watch.